NKS786 KLAX-KSFO
Flight info
| Callsign | NKS786 |
|---|---|
| Flight time | 0h 54m |
| Altitude | 36000 |
| Route | SUMMR2 STOKD SERFR SERFR4 |
| Aircraft | A320/M-SDE3FGHIRWY/LB1 |
Departure
| Time | 2026-05-04 18:31 |
|---|---|
| Airport | Los Angeles International Airport (KLAX) |
Arrival
| Time | 2026-05-04 19:25 |
|---|---|
| Airport | San Francisco International Airport (KSFO) |
| Time | Latitude | Longitude | Altitude | Speed | Heading |
|---|---|---|---|---|---|
| 2026-05-04 18:10 | 33.94210 | -118.40942 | 124 ft | 0 kts | 263° |
| 2026-05-04 18:25 | 33.94211 | -118.40926 | 122 ft | 2 kts | 263° |
| 2026-05-04 18:25 | 33.94213 | -118.40907 | 122 ft | 2 kts | 255° |
| 2026-05-04 18:25 | 33.94221 | -118.40891 | 122 ft | 2 kts | 188° |
| 2026-05-04 18:25 | 33.94221 | -118.40889 | 122 ft | 2 kts | 172° |
| 2026-05-04 18:26 | 33.94207 | -118.40884 | 123 ft | 0 kts | 159° |
| 2026-05-04 18:26 | 33.94200 | -118.40880 | 124 ft | 5 kts | 153° |
| 2026-05-04 18:26 | 33.94127 | -118.40840 | 123 ft | 17 kts | 165° |
| 2026-05-04 18:26 | 33.93970 | -118.40815 | 121 ft | 28 kts | 174° |
| 2026-05-04 18:27 | 33.93872 | -118.40878 | 126 ft | 20 kts | 256° |
| 2026-05-04 18:27 | 33.93849 | -118.41087 | 126 ft | 30 kts | 263° |
| 2026-05-04 18:27 | 33.93938 | -118.41173 | 124 ft | 23 kts | 353° |
| 2026-05-04 18:27 | 33.94137 | -118.41202 | 124 ft | 35 kts | 353° |
| 2026-05-04 18:28 | 33.94402 | -118.41239 | 123 ft | 32 kts | 353° |
| 2026-05-04 18:28 | 33.94648 | -118.41278 | 126 ft | 24 kts | 1° |
| 2026-05-04 18:28 | 33.94725 | -118.41157 | 126 ft | 24 kts | 76° |
| 2026-05-04 18:28 | 33.94750 | -118.40906 | 124 ft | 36 kts | 82° |
| 2026-05-04 18:29 | 33.94785 | -118.40562 | 126 ft | 47 kts | 84° |
| 2026-05-04 18:29 | 33.94824 | -118.40247 | 126 ft | 17 kts | 77° |
| 2026-05-04 18:29 | 33.94854 | -118.40096 | 122 ft | 15 kts | 44° |
| 2026-05-04 18:29 | 33.94977 | -118.40064 | 124 ft | 19 kts | 359° |
| 2026-05-04 18:30 | 33.94990 | -118.40457 | 123 ft | 71 kts | 263° |
| 2026-05-04 18:30 | 33.94894 | -118.41392 | 126 ft | 148 kts | 263° |
| 2026-05-04 18:30 | 33.94743 | -118.42791 | 596 ft | 174 kts | 261° |
| 2026-05-04 18:31 | 33.94601 | -118.44308 | 1272 ft | 191 kts | 262° |
| 2026-05-04 18:31 | 33.94442 | -118.45926 | 1392 ft | 201 kts | 262° |
| 2026-05-04 18:31 | 33.94304 | -118.47712 | 1836 ft | 227 kts | 265° |
| 2026-05-04 18:31 | 33.94226 | -118.49689 | 2525 ft | 244 kts | 268° |
| 2026-05-04 18:32 | 33.94152 | -118.51747 | 3565 ft | 246 kts | 266° |
| 2026-05-04 18:32 | 33.94021 | -118.53805 | 4636 ft | 250 kts | 265° |
| 2026-05-04 18:32 | 33.93859 | -118.55914 | 5727 ft | 253 kts | 265° |
| 2026-05-04 18:32 | 33.93685 | -118.58039 | 6737 ft | 257 kts | 265° |
| 2026-05-04 18:33 | 33.93509 | -118.60197 | 7645 ft | 261 kts | 265° |
| 2026-05-04 18:33 | 33.93342 | -118.62387 | 8569 ft | 264 kts | 268° |
| 2026-05-04 18:33 | 33.93650 | -118.64574 | 9470 ft | 270 kts | 291° |
| 2026-05-04 18:33 | 33.94710 | -118.66481 | 10234 ft | 283 kts | 308° |
| 2026-05-04 18:34 | 33.96061 | -118.68331 | 10548 ft | 305 kts | 308° |
| 2026-05-04 18:34 | 33.97499 | -118.70270 | 11156 ft | 314 kts | 308° |
| 2026-05-04 18:34 | 33.98967 | -118.72241 | 11879 ft | 319 kts | 308° |
| 2026-05-04 18:34 | 34.00459 | -118.74251 | 12612 ft | 324 kts | 308° |
| 2026-05-04 18:35 | 34.01968 | -118.76293 | 13340 ft | 329 kts | 308° |
| 2026-05-04 18:35 | 34.03500 | -118.78371 | 14050 ft | 334 kts | 308° |
| 2026-05-04 18:35 | 34.05048 | -118.80480 | 14707 ft | 337 kts | 307° |
| 2026-05-04 18:35 | 34.06608 | -118.82613 | 15355 ft | 340 kts | 306° |
| 2026-05-04 18:36 | 34.08178 | -118.84765 | 16025 ft | 343 kts | 306° |
| 2026-05-04 18:36 | 34.09760 | -118.86930 | 16722 ft | 345 kts | 305° |
| 2026-05-04 18:36 | 34.11352 | -118.89111 | 17442 ft | 348 kts | 305° |
| 2026-05-04 18:36 | 34.12959 | -118.91317 | 18128 ft | 351 kts | 304° |
| 2026-05-04 18:37 | 34.14580 | -118.93539 | 18741 ft | 354 kts | 304° |
| 2026-05-04 18:37 | 34.16219 | -118.95786 | 19364 ft | 358 kts | 304° |
| 2026-05-04 18:37 | 34.17863 | -118.98042 | 20000 ft | 360 kts | 304° |
| 2026-05-04 18:37 | 34.19501 | -119.00290 | 20625 ft | 362 kts | 303° |
| 2026-05-04 18:38 | 34.21171 | -119.02583 | 21230 ft | 364 kts | 303° |
| 2026-05-04 18:38 | 34.22846 | -119.04882 | 21811 ft | 366 kts | 302° |
| 2026-05-04 18:38 | 34.24534 | -119.07200 | 22371 ft | 368 kts | 302° |
| 2026-05-04 18:38 | 34.26233 | -119.09539 | 22947 ft | 371 kts | 301° |
| 2026-05-04 18:39 | 34.27937 | -119.11886 | 23560 ft | 373 kts | 301° |
| 2026-05-04 18:39 | 34.29651 | -119.14249 | 24067 ft | 375 kts | 300° |
| 2026-05-04 18:39 | 34.31377 | -119.16624 | 24532 ft | 377 kts | 300° |
| 2026-05-04 18:39 | 34.33116 | -119.19019 | 24967 ft | 380 kts | 300° |
| 2026-05-04 18:40 | 34.34864 | -119.21431 | 25398 ft | 383 kts | 300° |
| 2026-05-04 18:40 | 34.36621 | -119.23866 | 25850 ft | 385 kts | 299° |
| 2026-05-04 18:40 | 34.38387 | -119.26316 | 26265 ft | 389 kts | 299° |
| 2026-05-04 18:40 | 34.40176 | -119.28797 | 26658 ft | 392 kts | 299° |
| 2026-05-04 18:41 | 34.41978 | -119.31296 | 27058 ft | 396 kts | 299° |
| 2026-05-04 18:41 | 34.43794 | -119.33815 | 27458 ft | 399 kts | 298° |
| 2026-05-04 18:41 | 34.45626 | -119.36353 | 27847 ft | 402 kts | 298° |
| 2026-05-04 18:41 | 34.47469 | -119.38909 | 28230 ft | 405 kts | 298° |
| 2026-05-04 18:42 | 34.49331 | -119.41488 | 28612 ft | 407 kts | 298° |
| 2026-05-04 18:42 | 34.51200 | -119.44075 | 29021 ft | 408 kts | 298° |
| 2026-05-04 18:42 | 34.53072 | -119.46677 | 29323 ft | 412 kts | 298° |
| 2026-05-04 18:42 | 34.54966 | -119.49319 | 29695 ft | 417 kts | 298° |
| 2026-05-04 18:43 | 34.56874 | -119.51983 | 30095 ft | 420 kts | 298° |
| 2026-05-04 18:43 | 34.58800 | -119.54672 | 30446 ft | 423 kts | 298° |
| 2026-05-04 18:43 | 34.60740 | -119.57372 | 30804 ft | 426 kts | 298° |
| 2026-05-04 18:43 | 34.62695 | -119.60091 | 31156 ft | 428 kts | 298° |
| 2026-05-04 18:44 | 34.64655 | -119.62818 | 31448 ft | 430 kts | 298° |
| 2026-05-04 18:44 | 34.65957 | -119.64635 | 31684 ft | 431 kts | 298° |
| 2026-05-04 18:44 | 34.68590 | -119.68309 | 32299 ft | 430 kts | 298° |
| 2026-05-04 18:44 | 34.70544 | -119.71040 | 32844 ft | 428 kts | 297° |
| 2026-05-04 18:45 | 34.72490 | -119.73766 | 33397 ft | 426 kts | 297° |
| 2026-05-04 18:45 | 34.74427 | -119.76486 | 33892 ft | 424 kts | 297° |
| 2026-05-04 18:45 | 34.76356 | -119.79197 | 34318 ft | 423 kts | 297° |
| 2026-05-04 18:45 | 34.78281 | -119.81902 | 34666 ft | 424 kts | 299° |
| 2026-05-04 18:46 | 34.80213 | -119.84620 | 35011 ft | 425 kts | 300° |
| 2026-05-04 18:46 | 34.82148 | -119.87346 | 35285 ft | 427 kts | 301° |
| 2026-05-04 18:46 | 34.84090 | -119.90083 | 35594 ft | 428 kts | 301° |
| 2026-05-04 18:46 | 34.86035 | -119.92820 | 35928 ft | 428 kts | 301° |
| 2026-05-04 18:47 | 34.87985 | -119.95568 | 36029 ft | 427 kts | 301° |
| 2026-05-04 18:47 | 34.91817 | -120.00978 | 36049 ft | 423 kts | 301° |
| 2026-05-04 18:48 | 34.95688 | -120.06451 | 36058 ft | 423 kts | 301° |
| 2026-05-04 18:48 | 34.99504 | -120.11856 | 36082 ft | 424 kts | 301° |
| 2026-05-04 18:49 | 35.03351 | -120.17317 | 36071 ft | 424 kts | 301° |
| 2026-05-04 18:49 | 35.07197 | -120.22787 | 36075 ft | 425 kts | 301° |
| 2026-05-04 18:50 | 35.11050 | -120.28269 | 36091 ft | 425 kts | 301° |
| 2026-05-04 18:50 | 35.14904 | -120.33763 | 36091 ft | 426 kts | 301° |
| 2026-05-04 18:51 | 35.18749 | -120.39266 | 36091 ft | 426 kts | 301° |
| 2026-05-04 18:51 | 35.22596 | -120.44765 | 36095 ft | 426 kts | 301° |
| 2026-05-04 18:52 | 35.26449 | -120.50280 | 36113 ft | 427 kts | 300° |
| 2026-05-04 18:52 | 35.30303 | -120.55800 | 36098 ft | 426 kts | 300° |
| 2026-05-04 18:53 | 35.34150 | -120.61328 | 36093 ft | 426 kts | 300° |
| 2026-05-04 18:53 | 35.37990 | -120.66862 | 36093 ft | 426 kts | 300° |
| 2026-05-04 18:54 | 35.41831 | -120.72399 | 36108 ft | 427 kts | 300° |
| 2026-05-04 18:54 | 35.45676 | -120.77943 | 36108 ft | 427 kts | 300° |
| 2026-05-04 18:55 | 35.49814 | -120.83192 | 36116 ft | 442 kts | 312° |
| 2026-05-04 18:55 | 35.54732 | -120.87740 | 35781 ft | 440 kts | 313° |
| 2026-05-04 18:55 | 35.57172 | -120.89984 | 35418 ft | 437 kts | 312° |
| 2026-05-04 18:56 | 35.59594 | -120.92215 | 35032 ft | 433 kts | 312° |
| 2026-05-04 18:56 | 35.61991 | -120.94434 | 34628 ft | 429 kts | 311° |
| 2026-05-04 18:56 | 35.64358 | -120.96634 | 34270 ft | 425 kts | 311° |
| 2026-05-04 18:56 | 35.66703 | -120.98818 | 33850 ft | 421 kts | 311° |
| 2026-05-04 18:57 | 35.69026 | -121.00979 | 33390 ft | 419 kts | 313° |
| 2026-05-04 18:57 | 35.71577 | -121.02811 | 32974 ft | 427 kts | 321° |
| 2026-05-04 18:57 | 35.74195 | -121.04495 | 32567 ft | 423 kts | 321° |
| 2026-05-04 18:57 | 35.76800 | -121.06165 | 32171 ft | 419 kts | 322° |
| 2026-05-04 18:58 | 35.79375 | -121.07815 | 31793 ft | 415 kts | 322° |
| 2026-05-04 18:58 | 35.81922 | -121.09452 | 31398 ft | 412 kts | 322° |
| 2026-05-04 18:58 | 35.84453 | -121.11083 | 31026 ft | 408 kts | 322° |
| 2026-05-04 18:58 | 35.86960 | -121.12696 | 30657 ft | 405 kts | 322° |
| 2026-05-04 18:59 | 35.89447 | -121.14295 | 30285 ft | 401 kts | 322° |
| 2026-05-04 18:59 | 35.91914 | -121.15886 | 29869 ft | 398 kts | 322° |
| 2026-05-04 18:59 | 35.94352 | -121.17463 | 29461 ft | 394 kts | 324° |
| 2026-05-04 18:59 | 35.96768 | -121.19026 | 29105 ft | 389 kts | 324° |
| 2026-05-04 19:00 | 35.99141 | -121.20557 | 28965 ft | 379 kts | 324° |
| 2026-05-04 19:00 | 36.01451 | -121.22045 | 28818 ft | 370 kts | 324° |
| 2026-05-04 19:00 | 36.03707 | -121.23501 | 28442 ft | 366 kts | 324° |
| 2026-05-04 19:00 | 36.06013 | -121.25010 | 27225 ft | 386 kts | 326° |
| 2026-05-04 19:01 | 36.08450 | -121.26620 | 25870 ft | 407 kts | 327° |
| 2026-05-04 19:01 | 36.11011 | -121.28307 | 24385 ft | 427 kts | 329° |
| 2026-05-04 19:01 | 36.13693 | -121.30054 | 22939 ft | 443 kts | 331° |
| 2026-05-04 19:01 | 36.16449 | -121.31833 | 21573 ft | 450 kts | 332° |
| 2026-05-04 19:02 | 36.19232 | -121.33622 | 20574 ft | 448 kts | 332° |
| 2026-05-04 19:02 | 36.21984 | -121.35396 | 19713 ft | 444 kts | 332° |
| 2026-05-04 19:02 | 36.24704 | -121.37152 | 18869 ft | 438 kts | 332° |
| 2026-05-04 19:02 | 36.27392 | -121.38896 | 18012 ft | 433 kts | 332° |
| 2026-05-04 19:03 | 36.30046 | -121.40628 | 17093 ft | 429 kts | 332° |
| 2026-05-04 19:03 | 36.32667 | -121.42343 | 16232 ft | 424 kts | 332° |
| 2026-05-04 19:03 | 36.35264 | -121.44043 | 15402 ft | 420 kts | 332° |
| 2026-05-04 19:03 | 36.37838 | -121.45731 | 14618 ft | 416 kts | 333° |
| 2026-05-04 19:04 | 36.40356 | -121.47384 | 13888 ft | 413 kts | 333° |
| 2026-05-04 19:04 | 36.42884 | -121.49043 | 13118 ft | 409 kts | 333° |
| 2026-05-04 19:04 | 36.45385 | -121.50682 | 12360 ft | 405 kts | 333° |
| 2026-05-04 19:04 | 36.47865 | -121.52306 | 11594 ft | 401 kts | 333° |
| 2026-05-04 19:05 | 36.50311 | -121.53908 | 10878 ft | 396 kts | 333° |
| 2026-05-04 19:05 | 36.52728 | -121.55497 | 10190 ft | 390 kts | 333° |
| 2026-05-04 19:05 | 36.55110 | -121.57064 | 9423 ft | 385 kts | 333° |
| 2026-05-04 19:05 | 36.57467 | -121.58617 | 8607 ft | 381 kts | 332° |
| 2026-05-04 19:06 | 36.59798 | -121.60152 | 7801 ft | 378 kts | 332° |
| 2026-05-04 19:06 | 36.62112 | -121.61676 | 7018 ft | 375 kts | 332° |
| 2026-05-04 19:06 | 36.64412 | -121.63188 | 6226 ft | 373 kts | 332° |
| 2026-05-04 19:06 | 36.66697 | -121.64688 | 5396 ft | 370 kts | 331° |
| 2026-05-04 19:07 | 36.68963 | -121.66173 | 4654 ft | 366 kts | 331° |
| 2026-05-04 19:07 | 36.71189 | -121.67639 | 4152 ft | 355 kts | 330° |
| 2026-05-04 19:07 | 36.73313 | -121.69041 | 4017 ft | 336 kts | 330° |
| 2026-05-04 19:07 | 36.75319 | -121.70365 | 4031 ft | 315 kts | 330° |
| 2026-05-04 19:08 | 36.77200 | -121.71610 | 4036 ft | 297 kts | 330° |
| 2026-05-04 19:08 | 36.78972 | -121.72784 | 4036 ft | 281 kts | 330° |
| 2026-05-04 19:08 | 36.80654 | -121.73898 | 4034 ft | 266 kts | 330° |
| 2026-05-04 19:08 | 36.82224 | -121.74937 | 4035 ft | 251 kts | 330° |
| 2026-05-04 19:09 | 36.83742 | -121.75942 | 4035 ft | 236 kts | 330° |
| 2026-05-04 19:09 | 36.84685 | -121.76566 | 4035 ft | 226 kts | 329° |
| 2026-05-04 19:09 | 36.86031 | -121.77454 | 4035 ft | 214 kts | 329° |
| 2026-05-04 19:09 | 36.87345 | -121.78325 | 4035 ft | 213 kts | 329° |
| 2026-05-04 19:10 | 36.89084 | -121.79481 | 4041 ft | 223 kts | 329° |
| 2026-05-04 19:10 | 36.90582 | -121.80487 | 4045 ft | 260 kts | 330° |
| 2026-05-04 19:10 | 36.92205 | -121.81569 | 4036 ft | 267 kts | 330° |
| 2026-05-04 19:10 | 36.93319 | -121.82306 | 4036 ft | 268 kts | 330° |
| 2026-05-04 19:11 | 36.94971 | -121.83403 | 4042 ft | 269 kts | 330° |
| 2026-05-04 19:11 | 36.96622 | -121.84500 | 4038 ft | 269 kts | 330° |
| 2026-05-04 19:11 | 36.98269 | -121.85600 | 4035 ft | 269 kts | 330° |
| 2026-05-04 19:11 | 36.99917 | -121.86700 | 4036 ft | 268 kts | 331° |
| 2026-05-04 19:12 | 37.01563 | -121.87798 | 4022 ft | 268 kts | 331° |
| 2026-05-04 19:12 | 37.04846 | -121.89998 | 4013 ft | 268 kts | 331° |
| 2026-05-04 19:12 | 37.06485 | -121.91095 | 4014 ft | 268 kts | 331° |
| 2026-05-04 19:13 | 37.08110 | -121.92182 | 4017 ft | 268 kts | 331° |
| 2026-05-04 19:13 | 37.09754 | -121.93278 | 4011 ft | 268 kts | 331° |
| 2026-05-04 19:13 | 37.11401 | -121.94374 | 4011 ft | 268 kts | 331° |
| 2026-05-04 19:13 | 37.13048 | -121.95469 | 4012 ft | 268 kts | 332° |
| 2026-05-04 19:14 | 37.14693 | -121.96564 | 4072 ft | 270 kts | 331° |
| 2026-05-04 19:14 | 37.16361 | -121.97677 | 5053 ft | 272 kts | 332° |
| 2026-05-04 19:14 | 37.18060 | -121.98815 | 5695 ft | 279 kts | 332° |
| 2026-05-04 19:14 | 37.19778 | -121.99967 | 5931 ft | 281 kts | 332° |
| 2026-05-04 19:15 | 37.21504 | -122.01123 | 6002 ft | 281 kts | 332° |
| 2026-05-04 19:15 | 37.23246 | -122.02289 | 6003 ft | 280 kts | 332° |
| 2026-05-04 19:15 | 37.24944 | -122.03426 | 6005 ft | 281 kts | 332° |
| 2026-05-04 19:15 | 37.26666 | -122.04581 | 6017 ft | 280 kts | 332° |
| 2026-05-04 19:16 | 37.28382 | -122.05735 | 6021 ft | 281 kts | 332° |
| 2026-05-04 19:16 | 37.30107 | -122.06896 | 6016 ft | 281 kts | 332° |
| 2026-05-04 19:16 | 37.31820 | -122.08052 | 5965 ft | 279 kts | 333° |
| 2026-05-04 19:16 | 37.33518 | -122.09196 | 5777 ft | 273 kts | 332° |
| 2026-05-04 19:17 | 37.35224 | -122.10123 | 5656 ft | 263 kts | 343° |
| 2026-05-04 19:17 | 37.36950 | -122.10785 | 5417 ft | 258 kts | 343° |
| 2026-05-04 19:17 | 37.38721 | -122.11479 | 4654 ft | 276 kts | 342° |
| 2026-05-04 19:17 | 37.40606 | -122.12222 | 3801 ft | 293 kts | 342° |
| 2026-05-04 19:18 | 37.42591 | -122.13001 | 3151 ft | 301 kts | 342° |
| 2026-05-04 19:18 | 37.44549 | -122.13765 | 2957 ft | 287 kts | 341° |
| 2026-05-04 19:18 | 37.46395 | -122.14483 | 2908 ft | 268 kts | 341° |
| 2026-05-04 19:18 | 37.48103 | -122.15146 | 2921 ft | 243 kts | 341° |
| 2026-05-04 19:19 | 37.49624 | -122.15734 | 2924 ft | 214 kts | 341° |
| 2026-05-04 19:19 | 37.50993 | -122.16265 | 2927 ft | 200 kts | 341° |
| 2026-05-04 19:19 | 37.52294 | -122.16776 | 2943 ft | 191 kts | 339° |
| 2026-05-04 19:19 | 37.53370 | -122.17491 | 2939 ft | 162 kts | 318° |
| 2026-05-04 19:20 | 37.54079 | -122.18476 | 2952 ft | 142 kts | 300° |
| 2026-05-04 19:20 | 37.54544 | -122.19542 | 2856 ft | 136 kts | 296° |
| 2026-05-04 19:20 | 37.54983 | -122.20583 | 2730 ft | 133 kts | 295° |
| 2026-05-04 19:20 | 37.55419 | -122.21617 | 2555 ft | 134 kts | 296° |
| 2026-05-04 19:21 | 37.55855 | -122.22649 | 2389 ft | 133 kts | 295° |
| 2026-05-04 19:21 | 37.56290 | -122.23681 | 2204 ft | 133 kts | 296° |
| 2026-05-04 19:21 | 37.56718 | -122.24696 | 2033 ft | 130 kts | 296° |
| 2026-05-04 19:21 | 37.57138 | -122.25693 | 1852 ft | 128 kts | 296° |
| 2026-05-04 19:22 | 37.57553 | -122.26678 | 1685 ft | 128 kts | 296° |
| 2026-05-04 19:22 | 37.57970 | -122.27668 | 1497 ft | 128 kts | 296° |
| 2026-05-04 19:22 | 37.58387 | -122.28660 | 1332 ft | 129 kts | 296° |
| 2026-05-04 19:22 | 37.58806 | -122.29655 | 1151 ft | 129 kts | 297° |
| 2026-05-04 19:23 | 37.59228 | -122.30657 | 971 ft | 130 kts | 297° |
| 2026-05-04 19:23 | 37.59651 | -122.31664 | 800 ft | 130 kts | 296° |
| 2026-05-04 19:23 | 37.60064 | -122.32644 | 636 ft | 127 kts | 295° |
| 2026-05-04 19:23 | 37.60484 | -122.33645 | 451 ft | 129 kts | 295° |
| 2026-05-04 19:24 | 37.60902 | -122.34639 | 278 ft | 128 kts | 294° |
| 2026-05-04 19:24 | 37.61314 | -122.35620 | 110 ft | 129 kts | 294° |
| 2026-05-04 19:24 | 37.61720 | -122.36594 | 19 ft | 109 kts | 297° |
| 2026-05-04 19:24 | 37.61937 | -122.37105 | 15 ft | 52 kts | 298° |
| 2026-05-04 19:25 | 37.62092 | -122.37475 | 17 ft | 34 kts | 298° |
| 2026-05-04 19:25 | 37.62186 | -122.37721 | 20 ft | 34 kts | 284° |
| 2026-05-04 19:25 | 37.62223 | -122.38039 | 25 ft | 24 kts | 277° |
| 2026-05-04 19:25 | 37.62222 | -122.38229 | 22 ft | 25 kts | 251° |
| 2026-05-04 19:26 | 37.62094 | -122.38334 | 23 ft | 19 kts | 197° |
| 2026-05-04 19:26 | 37.62016 | -122.38369 | 23 ft | 4 kts | 205° |
| 2026-05-04 19:26 | 37.61980 | -122.38403 | 19 ft | 0 kts | 213° |